sensor_id;sensor_type;location;lat;lon;timestamp;pressure;altitude;pressure_sealevel;temperature;humidity
78990;BME280;68390;52.130;21.218;2024-01-15T00:01:11;98409.56;;;0.05;100.00
78990;BME280;68390;52.130;21.218;2024-01-15T00:03:37;98414.09;;;0.05;100.00
78990;BME280;68390;52.130;21.218;2024-01-15T00:06:02;98419.19;;;0.08;100.00
78990;BME280;68390;52.130;21.218;2024-01-15T00:08:28;98413.09;;;0.06;100.00
78990;BME280;68390;52.130;21.218;2024-01-15T00:10:53;98416.34;;;0.09;100.00
78990;BME280;68390;52.130;21.218;2024-01-15T00:13:18;98407.41;;;0.09;100.00
78990;BME280;68390;52.130;21.218;2024-01-15T00:15:44;98410.25;;;0.07;100.00
78990;BME280;68390;52.130;21.218;2024-01-15T00:18:09;98392.50;;;0.05;100.00
78990;BME280;68390;52.130;21.218;2024-01-15T00:20:34;98385.41;;;0.04;100.00
78990;BME280;68390;52.130;21.218;2024-01-15T00:23:00;98389.81;;;0.05;100.00
78990;BME280;68390;52.130;21.218;2024-01-15T00:25:25;98379.72;;;0.07;100.00
78990;BME280;68390;52.130;21.218;2024-01-15T00:27:50;98383.56;;;0.04;100.00
78990;BME280;68390;52.130;21.218;2024-01-15T00:30:16;98371.94;;;0.04;100.00
78990;BME280;68390;52.130;21.218;2024-01-15T00:32:41;98368.72;;;0.00;100.00
78990;BME280;68390;52.130;21.218;2024-01-15T00:35:07;98367.38;;;0.04;100.00
78990;BME280;68390;52.130;21.218;2024-01-15T00:37:32;98359.44;;;0.03;100.00
78990;BME280;68390;52.130;21.218;2024-01-15T00:39:57;98355.72;;;0.04;100.00
78990;BME280;68390;52.130;21.218;2024-01-15T00:42:23;98340.31;;;-0.04;100.00
78990;BME280;68390;52.130;21.218;2024-01-15T00:44:48;98352.34;;;0.02;100.00
78990;BME280;68390;52.130;21.218;2024-01-15T00:47:13;98336.78;;;-0.05;100.00
78990;BME280;68390;52.130;21.218;2024-01-15T00:49:39;98350.19;;;0.05;100.00
78990;BME280;68390;52.130;21.218;2024-01-15T00:52:05;98342.94;;;0.06;100.00
78990;BME280;68390;52.130;21.218;2024-01-15T00:54:30;98337.56;;;0.06;100.00
78990;BME280;68390;52.130;21.218;2024-01-15T00:56:55;98333.16;;;0.05;100.00
78990;BME280;68390;52.130;21.218;2024-01-15T00:59:21;98321.50;;;0.04;100.00
78990;BME280;68390;52.130;21.218;2024-01-15T01:01:46;98323.34;;;0.04;100.00
78990;BME280;68390;52.130;21.218;2024-01-15T01:04:12;98321.66;;;0.03;100.00
78990;BME280;68390;52.130;21.218;2024-01-15T01:06:38;98315.13;;;0.05;100.00
78990;BME280;68390;52.130;21.218;2024-01-15T01:09:03;98309.88;;;0.04;100.00
78990;BME280;68390;52.130;21.218;2024-01-15T01:11:30;98302.63;;;0.04;100.00
78990;BME280;68390;52.130;21.218;2024-01-15T01:13:55;98296.38;;;0.04;100.00
78990;BME280;68390;52.130;21.218;2024-01-15T01:16:21;98293.97;;;0.00;100.00
78990;BME280;68390;52.130;21.218;2024-01-15T01:18:47;98297.72;;;-0.01;100.00
78990;BME280;68390;52.130;21.218;2024-01-15T01:21:12;98295.00;;;-0.01;100.00
78990;BME280;68390;52.130;21.218;2024-01-15T01:23:38;98296.69;;;0.00;100.00
78990;BME280;68390;52.130;21.218;2024-01-15T01:26:03;98287.06;;;-0.02;100.00
78990;BME280;68390;52.130;21.218;2024-01-15T01:28:28;98287.38;;;-0.05;100.00
78990;BME280;68390;52.130;21.218;2024-01-15T01:30:54;98283.97;;;-0.07;100.00
78990;BME280;68390;52.130;21.218;2024-01-15T01:33:19;98285.97;;;-0.09;100.00
78990;BME280;68390;52.130;21.218;2024-01-15T01:35:45;98283.47;;;-0.11;100.00
78990;BME280;68390;52.130;21.218;2024-01-15T01:38:11;98277.53;;;-0.14;100.00
78990;BME280;68390;52.130;21.218;2024-01-15T01:40:37;98274.53;;;-0.11;100.00
78990;BME280;68390;52.130;21.218;2024-01-15T01:43:04;98274.28;;;-0.18;100.00
78990;BME280;68390;52.130;21.218;2024-01-15T01:45:29;98265.03;;;-0.15;100.00
78990;BME280;68390;52.130;21.218;2024-01-15T01:47:54;98265.19;;;-0.17;100.00
78990;BME280;68390;52.130;21.218;2024-01-15T01:50:20;98269.56;;;-0.16;100.00
78990;BME280;68390;52.130;21.218;2024-01-15T01:52:45;98264.19;;;-0.16;100.00
78990;BME280;68390;52.130;21.218;2024-01-15T01:55:12;98271.28;;;-0.15;100.00
78990;BME280;68390;52.130;21.218;2024-01-15T01:57:38;98255.09;;;-0.15;100.00
78990;BME280;68390;52.130;21.218;2024-01-15T02:00:04;98252.41;;;-0.15;100.00
78990;BME280;68390;52.130;21.218;2024-01-15T02:02:31;98247.38;;;-0.10;100.00
78990;BME280;68390;52.130;21.218;2024-01-15T02:04:57;98258.16;;;-0.10;100.00
78990;BME280;68390;52.130;21.218;2024-01-15T02:07:22;98241.47;;;-0.13;100.00
78990;BME280;68390;52.130;21.218;2024-01-15T02:09:49;98252.94;;;-0.11;100.00
78990;BME280;68390;52.130;21.218;2024-01-15T02:12:15;98253.09;;;-0.13;100.00
78990;BME280;68390;52.130;21.218;2024-01-15T02:14:40;98234.38;;;-0.14;100.00
78990;BME280;68390;52.130;21.218;2024-01-15T02:17:06;98233.22;;;-0.12;100.00
78990;BME280;68390;52.130;21.218;2024-01-15T02:19:31;98239.13;;;-0.08;100.00
78990;BME280;68390;52.130;21.218;2024-01-15T02:21:57;98219.34;;;-0.17;100.00
78990;BME280;68390;52.130;21.218;2024-01-15T02:24:22;98232.88;;;-0.09;100.00
78990;BME280;68390;52.130;21.218;2024-01-15T02:26:48;98237.28;;;-0.08;100.00
78990;BME280;68390;52.130;21.218;2024-01-15T02:29:14;98218.72;;;-0.11;100.00
78990;BME280;68390;52.130;21.218;2024-01-15T02:31:40;98222.94;;;-0.08;100.00
78990;BME280;68390;52.130;21.218;2024-01-15T02:34:05;98218.03;;;-0.13;100.00
78990;BME280;68390;52.130;21.218;2024-01-15T02:36:30;98218.72;;;-0.11;100.00
78990;BME280;68390;52.130;21.218;2024-01-15T02:38:56;98230.03;;;-0.07;100.00
78990;BME280;68390;52.130;21.218;2024-01-15T02:41:21;98216.69;;;-0.09;100.00
78990;BME280;68390;52.130;21.218;2024-01-15T02:43:46;98207.94;;;-0.11;100.00
78990;BME280;68390;52.130;21.218;2024-01-15T02:46:12;98207.59;;;-0.08;100.00
78990;BME280;68390;52.130;21.218;2024-01-15T02:48:37;98206.75;;;-0.08;100.00
78990;BME280;68390;52.130;21.218;2024-01-15T02:51:03;98207.28;;;-0.05;100.00
78990;BME280;68390;52.130;21.218;2024-01-15T02:53:28;98193.09;;;-0.07;100.00
78990;BME280;68390;52.130;21.218;2024-01-15T02:55:54;98196.81;;;-0.08;100.00
78990;BME280;68390;52.130;21.218;2024-01-15T02:58:19;98192.25;;;-0.07;100.00
78990;BME280;68390;52.130;21.218;2024-01-15T03:00:44;98190.25;;;-0.05;100.00
78990;BME280;68390;52.130;21.218;2024-01-15T03:03:11;98185.00;;;-0.07;100.00
78990;BME280;68390;52.130;21.218;2024-01-15T03:05:37;98172.69;;;-0.09;100.00
78990;BME280;68390;52.130;21.218;2024-01-15T03:08:02;98155.16;;;-0.13;100.00
78990;BME280;68390;52.130;21.218;2024-01-15T03:10:27;98164.44;;;-0.08;100.00
78990;BME280;68390;52.130;21.218;2024-01-15T03:12:53;98153.66;;;-0.08;100.00
78990;BME280;68390;52.130;21.218;2024-01-15T03:15:18;98157.34;;;-0.09;100.00
78990;BME280;68390;52.130;21.218;2024-01-15T03:17:44;98150.59;;;-0.13;100.00
78990;BME280;68390;52.130;21.218;2024-01-15T03:20:10;98143.19;;;-0.11;100.00
78990;BME280;68390;52.130;21.218;2024-01-15T03:22:35;98125.09;;;-0.18;100.00
78990;BME280;68390;52.130;21.218;2024-01-15T03:25:01;98150.25;;;-0.10;100.00
78990;BME280;68390;52.130;21.218;2024-01-15T03:27:26;98136.09;;;-0.12;100.00
78990;BME280;68390;52.130;21.218;2024-01-15T03:29:51;98141.31;;;-0.10;100.00
78990;BME280;68390;52.130;21.218;2024-01-15T03:32:17;98134.25;;;-0.11;100.00
78990;BME280;68390;52.130;21.218;2024-01-15T03:34:42;98129.31;;;-0.16;100.00
78990;BME280;68390;52.130;21.218;2024-01-15T03:37:08;98134.72;;;-0.16;100.00
78990;BME280;68390;52.130;21.218;2024-01-15T03:39:33;98135.56;;;-0.15;100.00
78990;BME280;68390;52.130;21.218;2024-01-15T03:41:58;98114.78;;;-0.23;100.00
78990;BME280;68390;52.130;21.218;2024-01-15T03:44:24;98117.34;;;-0.21;100.00
78990;BME280;68390;52.130;21.218;2024-01-15T03:46:50;98132.34;;;-0.19;100.00
78990;BME280;68390;52.130;21.218;2024-01-15T03:49:15;98124.56;;;-0.22;100.00
78990;BME280;68390;52.130;21.218;2024-01-15T03:51:40;98121.19;;;-0.24;100.00
78990;BME280;68390;52.130;21.218;2024-01-15T03:54:06;98114.94;;;-0.24;100.00
78990;BME280;68390;52.130;21.218;2024-01-15T03:56:31;98109.56;;;-0.24;100.00
78990;BME280;68390;52.130;21.218;2024-01-15T03:58:57;98107.00;;;-0.26;100.00
78990;BME280;68390;52.130;21.218;2024-01-15T04:01:22;98112.41;;;-0.26;100.00
78990;BME280;68390;52.130;21.218;2024-01-15T04:03:48;98096.19;;;-0.34;100.00
78990;BME280;68390;52.130;21.218;2024-01-15T04:06:15;98100.22;;;-0.30;100.00
78990;BME280;68390;52.130;21.218;2024-01-15T04:08:40;98097.53;;;-0.30;100.00
78990;BME280;68390;52.130;21.218;2024-01-15T04:11:06;98090.28;;;-0.29;100.00
78990;BME280;68390;52.130;21.218;2024-01-15T04:13:34;98087.75;;;-0.31;100.00
78990;BME280;68390;52.130;21.218;2024-01-15T04:16:00;98090.28;;;-0.29;100.00
78990;BME280;68390;52.130;21.218;2024-01-15T04:18:25;98076.97;;;-0.31;100.00
78990;BME280;68390;52.130;21.218;2024-01-15T04:20:50;98074.97;;;-0.29;100.00
78990;BME280;68390;52.130;21.218;2024-01-15T04:23:16;98064.34;;;-0.30;100.00
78990;BME280;68390;52.130;21.218;2024-01-15T04:25:41;98057.44;;;-0.33;100.00
78990;BME280;68390;52.130;21.218;2024-01-15T04:28:08;98056.44;;;-0.32;100.00
78990;BME280;68390;52.130;21.218;2024-01-15T04:30:34;98055.41;;;-0.31;100.00
78990;BME280;68390;52.130;21.218;2024-01-15T04:32:59;98047.31;;;-0.31;100.00
78990;BME280;68390;52.130;21.218;2024-01-15T04:35:24;98048.16;;;-0.30;100.00
78990;BME280;68390;52.130;21.218;2024-01-15T04:37:50;98047.16;;;-0.29;100.00
78990;BME280;68390;52.130;21.218;2024-01-15T04:40:15;98030.97;;;-0.29;100.00
78990;BME280;68390;52.130;21.218;2024-01-15T04:42:40;98030.97;;;-0.29;100.00
78990;BME280;68390;52.130;21.218;2024-01-15T04:45:06;98021.00;;;-0.37;100.00
78990;BME280;68390;52.130;21.218;2024-01-15T04:47:32;98026.44;;;-0.29;100.00
78990;BME280;68390;52.130;21.218;2024-01-15T04:49:57;98021.38;;;-0.32;100.00
78990;BME280;68390;52.130;21.218;2024-01-15T04:52:22;98035.22;;;-0.27;100.00
78990;BME280;68390;52.130;21.218;2024-01-15T04:54:48;98005.50;;;-0.35;100.00
78990;BME280;68390;52.130;21.218;2024-01-15T04:57:14;98031.50;;;-0.26;100.00
78990;BME280;68390;52.130;21.218;2024-01-15T04:59:40;98028.66;;;-0.24;100.00
78990;BME280;68390;52.130;21.218;2024-01-15T05:02:05;98008.56;;;-0.30;100.00
78990;BME280;68390;52.130;21.218;2024-01-15T05:04:31;98023.78;;;-0.21;100.00
78990;BME280;68390;52.130;21.218;2024-01-15T05:06:58;98012.31;;;-0.23;100.00
78990;BME280;68390;52.130;21.218;2024-01-15T05:09:23;97998.31;;;-0.26;100.00
78990;BME280;68390;52.130;21.218;2024-01-15T05:11:48;98000.53;;;-0.22;100.00
78990;BME280;68390;52.130;21.218;2024-01-15T05:14:14;98003.22;;;-0.22;100.00
78990;BME280;68390;52.130;21.218;2024-01-15T05:16:40;97999.53;;;-0.21;100.00
78990;BME280;68390;52.130;21.218;2024-01-15T05:19:11;98009.63;;;-0.23;100.00
78990;BME280;68390;52.130;21.218;2024-01-15T05:21:36;97994.28;;;-0.22;100.00
78990;BME280;68390;52.130;21.218;2024-01-15T05:24:02;98002.22;;;-0.21;100.00
78990;BME280;68390;52.130;21.218;2024-01-15T05:26:27;97998.69;;;-0.21;100.00
78990;BME280;68390;52.130;21.218;2024-01-15T05:28:52;97997.13;;;-0.24;100.00
78990;BME280;68390;52.130;21.218;2024-01-15T05:31:18;98003.38;;;-0.23;100.00
78990;BME280;68390;52.130;21.218;2024-01-15T05:33:43;98003.38;;;-0.23;100.00
78990;BME280;68390;52.130;21.218;2024-01-15T05:36:09;98002.53;;;-0.24;100.00
78990;BME280;68390;52.130;21.218;2024-01-15T05:38:34;97996.28;;;-0.24;100.00
78990;BME280;68390;52.130;21.218;2024-01-15T05:40:59;97984.97;;;-0.28;100.00
78990;BME280;68390;52.130;21.218;2024-01-15T05:43:25;97995.78;;;-0.20;100.00
78990;BME280;68390;52.130;21.218;2024-01-15T05:45:50;97998.50;;;-0.20;100.00
78990;BME280;68390;52.130;21.218;2024-01-15T05:48:15;97990.25;;;-0.18;100.00
78990;BME280;68390;52.130;21.218;2024-01-15T05:50:41;98001.56;;;-0.15;100.00
78990;BME280;68390;52.130;21.218;2024-01-15T05:53:07;97993.78;;;-0.18;100.00
78990;BME280;68390;52.130;21.218;2024-01-15T05:55:32;97992.78;;;-0.17;100.00
78990;BME280;68390;52.130;21.218;2024-01-15T05:57:57;98006.25;;;-0.17;100.00
78990;BME280;68390;52.130;21.218;2024-01-15T06:00:23;97992.63;;;-0.15;100.00
78990;BME280;68390;52.130;21.218;2024-01-15T06:02:48;97990.09;;;-0.17;100.00
78990;BME280;68390;52.130;21.218;2024-01-15T06:05:14;97987.06;;;-0.14;100.00
78990;BME280;68390;52.130;21.218;2024-01-15T06:07:39;97990.63;;;-0.13;100.00
78990;BME280;68390;52.130;21.218;2024-01-15T06:10:05;97987.56;;;-0.10;100.00
78990;BME280;68390;52.130;21.218;2024-01-15T06:12:30;97987.56;;;-0.10;100.00
78990;BME280;68390;52.130;21.218;2024-01-15T06:14:57;97980.50;;;-0.11;100.00
78990;BME280;68390;52.130;21.218;2024-01-15T06:17:22;97973.38;;;-0.20;99.78
78990;BME280;68390;52.130;21.218;2024-01-15T06:19:48;97980.31;;;-0.10;100.00
78990;BME280;68390;52.130;21.218;2024-01-15T06:22:13;97967.88;;;-0.11;100.00
78990;BME280;68390;52.130;21.218;2024-01-15T06:24:38;97966.84;;;-0.10;100.00
78990;BME280;68390;52.130;21.218;2024-01-15T06:27:04;97957.88;;;-0.18;100.00
78990;BME280;68390;52.130;21.218;2024-01-15T06:29:29;97963.13;;;-0.09;100.00
78990;BME280;68390;52.130;21.218;2024-01-15T06:31:55;97970.22;;;-0.08;99.96
78990;BME280;68390;52.130;21.218;2024-01-15T06:34:20;97961.13;;;-0.07;99.33
78990;BME280;68390;52.130;21.218;2024-01-15T06:36:45;97960.44;;;-0.09;99.50
78990;BME280;68390;52.130;21.218;2024-01-15T06:39:11;97955.72;;;-0.07;99.79
78990;BME280;68390;52.130;21.218;2024-01-15T06:41:36;97955.41;;;-0.04;99.62
78990;BME280;68390;52.130;21.218;2024-01-15T06:44:09;97958.28;;;-0.05;99.24
78990;BME280;68390;52.130;21.218;2024-01-15T06:46:35;97959.28;;;-0.06;98.65
78990;BME280;68390;52.130;21.218;2024-01-15T06:49:01;97959.13;;;-0.05;98.59
78990;BME280;68390;52.130;21.218;2024-01-15T06:51:26;97962.81;;;-0.06;98.53
78990;BME280;68390;52.130;21.218;2024-01-15T06:53:51;97956.56;;;-0.06;98.08
78990;BME280;68390;52.130;21.218;2024-01-15T06:56:17;97970.44;;;-0.01;97.62
78990;BME280;68390;52.130;21.218;2024-01-15T06:58:42;97962.16;;;0.00;98.48
78990;BME280;68390;52.130;21.218;2024-01-15T07:01:07;97961.00;;;0.03;97.75
78990;BME280;68390;52.130;21.218;2024-01-15T07:03:33;97950.72;;;-0.02;97.62
78990;BME280;68390;52.130;21.218;2024-01-15T07:05:59;97962.69;;;0.04;96.80
78990;BME280;68390;52.130;21.218;2024-01-15T07:08:24;97947.31;;;-0.04;97.17
78990;BME280;68390;52.130;21.218;2024-01-15T07:10:49;97960.13;;;0.03;97.14
78990;BME280;68390;52.130;21.218;2024-01-15T07:13:15;97964.69;;;0.02;97.06
78990;BME280;68390;52.130;21.218;2024-01-15T07:15:40;97961.50;;;0.07;96.77
78990;BME280;68390;52.130;21.218;2024-01-15T07:18:05;97967.22;;;0.04;96.76
78990;BME280;68390;52.130;21.218;2024-01-15T07:20:31;97963.53;;;0.05;96.35
78990;BME280;68390;52.130;21.218;2024-01-15T07:22:56;97949.34;;;0.03;96.82
78990;BME280;68390;52.130;21.218;2024-01-15T07:25:22;97954.75;;;0.03;96.84
78990;BME280;68390;52.130;21.218;2024-01-15T07:27:47;97955.94;;;0.00;98.49
78990;BME280;68390;52.130;21.218;2024-01-15T07:30:13;97961.34;;;0.00;99.53
78990;BME280;68390;52.130;21.218;2024-01-15T07:32:38;97954.72;;;-0.06;99.95
78990;BME280;68390;52.130;21.218;2024-01-15T07:35:04;97954.03;;;-0.08;100.00
78990;BME280;68390;52.130;21.218;2024-01-15T07:37:31;97962.13;;;-0.08;100.00
78990;BME280;68390;52.130;21.218;2024-01-15T07:39:56;97946.09;;;-0.09;100.00
78990;BME280;68390;52.130;21.218;2024-01-15T07:42:21;97954.03;;;-0.08;100.00
78990;BME280;68390;52.130;21.218;2024-01-15T07:44:47;97945.25;;;-0.10;100.00
78990;BME280;68390;52.130;21.218;2024-01-15T07:47:12;97953.16;;;-0.16;100.00
78990;BME280;68390;52.130;21.218;2024-01-15T07:49:37;97955.19;;;-0.18;100.00
78990;BME280;68390;52.130;21.218;2024-01-15T07:52:03;97953.69;;;-0.21;100.00
78990;BME280;68390;52.130;21.218;2024-01-15T07:54:31;97957.38;;;-0.22;100.00
78990;BME280;68390;52.130;21.218;2024-01-15T07:56:58;97965.63;;;-0.23;100.00
78990;BME280;68390;52.130;21.218;2024-01-15T07:59:24;97973.22;;;-0.19;100.00
78990;BME280;68390;52.130;21.218;2024-01-15T08:01:50;97974.22;;;-0.20;100.00
78990;BME280;68390;52.130;21.218;2024-01-15T08:04:15;97954.00;;;-0.24;100.00
78990;BME280;68390;52.130;21.218;2024-01-15T08:06:40;97966.63;;;-0.24;100.00
78990;BME280;68390;52.130;21.218;2024-01-15T08:09:06;97944.75;;;-0.21;100.00
78990;BME280;68390;52.130;21.218;2024-01-15T08:11:32;97949.28;;;-0.22;100.00
78990;BME280;68390;52.130;21.218;2024-01-15T08:13:57;97950.16;;;-0.13;100.00
78990;BME280;68390;52.130;21.218;2024-01-15T08:16:23;97941.06;;;-0.12;100.00
78990;BME280;68390;52.130;21.218;2024-01-15T08:18:50;97935.81;;;-0.14;100.00
78990;BME280;68390;52.130;21.218;2024-01-15T08:21:15;97942.09;;;-0.05;100.00
78990;BME280;68390;52.130;21.218;2024-01-15T08:23:40;97957.44;;;-0.06;100.00
78990;BME280;68390;52.130;21.218;2024-01-15T08:26:07;97959.44;;;-0.08;100.00
78990;BME280;68390;52.130;21.218;2024-01-15T08:28:32;97963.50;;;-0.12;100.00
78990;BME280;68390;52.130;21.218;2024-01-15T08:30:57;97962.81;;;-0.14;100.00
78990;BME280;68390;52.130;21.218;2024-01-15T08:33:23;97971.38;;;-0.10;100.00
78990;BME280;68390;52.130;21.218;2024-01-15T08:35:48;97962.09;;;-0.16;100.00
78990;BME280;68390;52.130;21.218;2024-01-15T08:38:13;97967.50;;;-0.16;100.00
78990;BME280;68390;52.130;21.218;2024-01-15T08:40:39;97966.00;;;-0.10;100.00
78990;BME280;68390;52.130;21.218;2024-01-15T08:43:04;97964.13;;;-0.10;100.00
78990;BME280;68390;52.130;21.218;2024-01-15T08:45:34;97964.84;;;-0.08;100.00
78990;BME280;68390;52.130;21.218;2024-01-15T08:48:00;97981.69;;;-0.06;100.00
78990;BME280;68390;52.130;21.218;2024-01-15T08:50:26;97959.13;;;-0.05;100.00
78990;BME280;68390;52.130;21.218;2024-01-15T08:52:51;97966.22;;;0.05;100.00
78990;BME280;68390;52.130;21.218;2024-01-15T08:55:17;97967.22;;;0.04;100.00
78990;BME280;68390;52.130;21.218;2024-01-15T08:57:42;97967.91;;;-0.03;100.00
78990;BME280;68390;52.130;21.218;2024-01-15T09:00:08;97963.13;;;-0.09;100.00
78990;BME280;68390;52.130;21.218;2024-01-15T09:02:34;97971.06;;;-0.07;100.00
78990;BME280;68390;52.130;21.218;2024-01-15T09:05:00;97966.84;;;-0.10;100.00
78990;BME280;68390;52.130;21.218;2024-01-15T09:07:26;97980.69;;;-0.13;100.00
78990;BME280;68390;52.130;21.218;2024-01-15T09:09:52;97981.53;;;-0.12;100.00
78990;BME280;68390;52.130;21.218;2024-01-15T09:12:18;97977.25;;;-0.23;100.00
78990;BME280;68390;52.130;21.218;2024-01-15T09:14:46;97993.47;;;-0.15;100.00
78990;BME280;68390;52.130;21.218;2024-01-15T09:17:11;97973.94;;;-0.09;100.00
78990;BME280;68390;52.130;21.218;2024-01-15T09:19:37;97986.41;;;-0.08;100.00
78990;BME280;68390;52.130;21.218;2024-01-15T09:22:04;97977.84;;;-0.03;100.00
78990;BME280;68390;52.130;21.218;2024-01-15T09:24:29;97998.97;;;0.10;100.00
78990;BME280;68390;52.130;21.218;2024-01-15T09:26:54;97979.72;;;0.13;100.00
78990;BME280;68390;52.130;21.218;2024-01-15T09:29:20;97980.94;;;0.18;100.00
78990;BME280;68390;52.130;21.218;2024-01-15T09:31:45;97999.00;;;0.26;100.00
78990;BME280;68390;52.130;21.218;2024-01-15T09:34:13;97984.19;;;0.30;97.94
78990;BME280;68390;52.130;21.218;2024-01-15T09:36:39;97974.56;;;0.35;97.50
78990;BME280;68390;52.130;21.218;2024-01-15T09:39:06;97966.31;;;0.37;95.68
78990;BME280;68390;52.130;21.218;2024-01-15T09:41:34;97974.78;;;0.50;93.77
78990;BME280;68390;52.130;21.218;2024-01-15T09:44:00;97966.69;;;0.58;93.77
78990;BME280;68390;52.130;21.218;2024-01-15T09:46:27;97966.50;;;0.60;92.98
78990;BME280;68390;52.130;21.218;2024-01-15T09:48:53;97965.50;;;0.69;92.46
78990;BME280;68390;52.130;21.218;2024-01-15T09:51:18;97958.94;;;0.71;91.79
78990;BME280;68390;52.130;21.218;2024-01-15T09:53:46;97966.03;;;0.81;90.54
78990;BME280;68390;52.130;21.218;2024-01-15T09:56:12;97957.41;;;0.85;90.37
78990;BME280;68390;52.130;21.218;2024-01-15T09:58:38;97955.03;;;0.90;88.30
78990;BME280;68390;52.130;21.218;2024-01-15T10:01:04;97941.38;;;0.92;87.58
78990;BME280;68390;52.130;21.218;2024-01-15T10:03:30;97949.78;;;0.97;87.95
78990;BME280;68390;52.130;21.218;2024-01-15T10:05:58;97948.94;;;0.96;87.72
78990;BME280;68390;52.130;21.218;2024-01-15T10:08:25;97952.66;;;0.95;86.20
78990;BME280;68390;52.130;21.218;2024-01-15T10:10:51;97923.97;;;0.86;85.44
78990;BME280;68390;52.130;21.218;2024-01-15T10:13:17;97949.13;;;0.95;84.39
78990;BME280;68390;52.130;21.218;2024-01-15T10:15:45;97951.81;;;0.95;84.31
78990;BME280;68390;52.130;21.218;2024-01-15T10:18:12;97958.91;;;0.96;85.04
78990;BME280;68390;52.130;21.218;2024-01-15T10:20:37;97952.19;;;0.92;83.17
78990;BME280;68390;52.130;21.218;2024-01-15T10:23:03;97953.50;;;0.96;82.56
78990;BME280;68390;52.130;21.218;2024-01-15T10:25:29;97956.03;;;0.97;81.84
78990;BME280;68390;52.130;21.218;2024-01-15T10:28:03;97947.25;;;0.95;82.95
78990;BME280;68390;52.130;21.218;2024-01-15T10:30:29;97944.06;;;1.00;81.38
78990;BME280;68390;52.130;21.218;2024-01-15T10:33:00;97949.78;;;1.05;82.38
78990;BME280;68390;52.130;21.218;2024-01-15T10:35:35;97936.63;;;1.02;80.82
78990;BME280;68390;52.130;21.218;2024-01-15T10:38:01;97946.22;;;1.04;80.92
78990;BME280;68390;52.130;21.218;2024-01-15T10:40:27;97950.16;;;1.02;81.37
78990;BME280;68390;52.130;21.218;2024-01-15T10:42:52;97953.84;;;1.01;82.11
78990;BME280;68390;52.130;21.218;2024-01-15T10:45:18;97944.38;;;0.97;82.04
78990;BME280;68390;52.130;21.218;2024-01-15T10:47:44;97953.88;;;0.93;82.21
78990;BME280;68390;52.130;21.218;2024-01-15T10:50:10;97955.88;;;0.91;82.26
78990;BME280;68390;52.130;21.218;2024-01-15T10:52:40;97955.03;;;0.90;83.60
78990;BME280;68390;52.130;21.218;2024-01-15T10:55:07;97958.22;;;0.94;84.20
78990;BME280;68390;52.130;21.218;2024-01-15T10:57:34;97948.44;;;1.01;84.46
78990;BME280;68390;52.130;21.218;2024-01-15T11:00:00;97951.13;;;1.09;83.81
78990;BME280;68390;52.130;21.218;2024-01-15T11:02:28;97956.34;;;1.35;83.31
78990;BME280;68390;52.130;21.218;2024-01-15T11:04:53;97952.53;;;1.60;82.79
78990;BME280;68390;52.130;21.218;2024-01-15T11:07:22;97956.44;;;1.66;81.45
78990;BME280;68390;52.130;21.218;2024-01-15T11:09:49;97957.09;;;1.60;82.05
78990;BME280;68390;52.130;21.218;2024-01-15T11:12:16;97957.16;;;1.43;83.01
78990;BME280;68390;52.130;21.218;2024-01-15T11:14:47;97955.31;;;1.36;82.38
78990;BME280;68390;52.130;21.218;2024-01-15T11:17:13;97957.19;;;1.27;82.22
78990;BME280;68390;52.130;21.218;2024-01-15T11:22:08;97945.41;;;1.12;82.43
78990;BME280;68390;52.130;21.218;2024-01-15T11:24:39;97939.31;;;1.10;82.90
78990;BME280;68390;52.130;21.218;2024-01-15T11:27:06;97947.44;;;1.10;83.59
78990;BME280;68390;52.130;21.218;2024-01-15T11:29:36;97939.84;;;1.14;83.24
78990;BME280;68390;52.130;21.218;2024-01-15T11:37:17;97933.72;;;1.20;82.56
78990;BME280;68390;52.130;21.218;2024-01-15T11:39:43;97927.13;;;1.22;82.27
78990;BME280;68390;52.130;21.218;2024-01-15T11:42:10;97931.69;;;1.30;82.35
78990;BME280;68390;52.130;21.218;2024-01-15T11:44:37;97906.34;;;1.23;81.20
78990;BME280;68390;52.130;21.218;2024-01-15T11:47:04;97924.91;;;1.34;81.55
78990;BME280;68390;52.130;21.218;2024-01-15T11:52:17;97918.66;;;1.33;81.21
78990;BME280;68390;52.130;21.218;2024-01-15T11:55:01;97906.19;;;1.16;81.67
78990;BME280;68390;52.130;21.218;2024-01-15T12:00:10;97914.31;;;1.08;84.04
78990;BME280;68390;52.130;21.218;2024-01-15T12:02:37;97916.03;;;1.01;84.95
78990;BME280;68390;52.130;21.218;2024-01-15T12:05:06;97916.53;;;0.96;85.92
78990;BME280;68390;52.130;21.218;2024-01-15T12:07:32;97903.53;;;1.00;85.80
78990;BME280;68390;52.130;21.218;2024-01-15T12:09:58;97904.22;;;1.02;85.74
78990;BME280;68390;52.130;21.218;2024-01-15T12:15:18;97909.44;;;0.95;84.83
78990;BME280;68390;52.130;21.218;2024-01-15T12:17:45;97909.44;;;0.95;85.77
78990;BME280;68390;52.130;21.218;2024-01-15T12:20:11;97907.59;;;0.80;86.31
78990;BME280;68390;52.130;21.218;2024-01-15T12:22:37;97917.03;;;0.84;87.54
78990;BME280;68390;52.130;21.218;2024-01-15T12:25:03;97918.06;;;0.74;89.20
78990;BME280;68390;52.130;21.218;2024-01-15T12:27:29;97921.59;;;0.75;90.16
78990;BME280;68390;52.130;21.218;2024-01-15T12:29:54;97936.47;;;0.79;90.44
78990;BME280;68390;52.130;21.218;2024-01-15T12:32:19;97913.34;;;0.68;90.47
78990;BME280;68390;52.130;21.218;2024-01-15T12:34:49;97919.44;;;0.70;91.21
78990;BME280;68390;52.130;21.218;2024-01-15T12:37:14;97914.72;;;0.72;91.24
78990;BME280;68390;52.130;21.218;2024-01-15T12:39:43;97911.66;;;0.67;91.27
78990;BME280;68390;52.130;21.218;2024-01-15T12:42:09;97909.63;;;0.53;91.63
78990;BME280;68390;52.130;21.218;2024-01-15T12:44:35;97912.69;;;0.50;92.12
78990;BME280;68390;52.130;21.218;2024-01-15T12:47:01;97923.28;;;0.44;93.29
78990;BME280;68390;52.130;21.218;2024-01-15T12:49:26;97914.50;;;0.33;94.85
78990;BME280;68390;52.130;21.218;2024-01-15T12:51:57;97917.38;;;0.32;96.04
78990;BME280;68390;52.130;21.218;2024-01-15T12:54:22;97923.44;;;0.34;95.38
78990;BME280;68390;52.130;21.218;2024-01-15T12:56:49;97905.72;;;0.31;94.63